Strona główna
METAR-TAF:

METAR-TAF

Lotnisko :

Agen, Francja

Szerokość geograficzna: 44-11N, Długość geograficzna: 000-36E, wysokość: 61 m

Aktualna obserwacja pogody

Raport powstał 20 minut temu, godzina 17:00 UTC
Wiatr 4 kt od zachód
Temperatura 7°C
Wilgotność 70%
Ciśnienie 1017 hPa
Widzialność 10 km lub więcej
Mało chmury na wysokości 3800 ft
Zachmurzenie całkowite na wysokości 4500 ft

METAR: LFBA 181700Z AUTO 27004KT 9999 FEW038 OVC045 07/02 Q1017 NOSIG

czas: 18:20 (17:20 UTC)

Prognoza

Raport powstał 3 godziny i 20 minut temu, godzina 14:00 UTC
Prognoza ważna od 18 godzina 15 UTC do 18 godzina 24 UTC
Wiatr 6 kt od zachodnio-północny zachód
Widzialność 10 km lub więcej
Przerywane chmury na wysokości 4500 ft

TAF: LFBA 181400Z 1815/1824 29006KT 9999 BKN045

Obserwacja i prognoza pogody dla ponad 4000 lotnisk (raport METAR i TAF).

Dostępne stacje oznaczono żółtymi i czerwonymi punktami na mapie.

Najedź kursorem aby zobaczyć nazwę stacji.

Kliknij aby zobaczyć obserwacje i prognozy pogody.

Aby zmienić mapę: kliknij na zielony przycisk z czarnym krzyżykiem, aby powiększyć; na zielony przycisk z myślnikiem, aby pomniejszyć; na zielone strzałki, aby przejść do map sąsiednich.


METAR-TAF: